sensor_id;sensor_type;location;lat;lon;timestamp;temperature;humidity
37910;DHT22;23741;49.446;8.754;2023-06-22T00:01:30;24.90;60.20
37910;DHT22;23741;49.446;8.754;2023-06-22T00:03:31;24.90;60.20
37910;DHT22;23741;49.446;8.754;2023-06-22T00:05:33;24.90;60.10
37910;DHT22;23741;49.446;8.754;2023-06-22T00:07:35;24.90;60.10
37910;DHT22;23741;49.446;8.754;2023-06-22T00:09:37;24.90;60.00
37910;DHT22;23741;49.446;8.754;2023-06-22T00:11:38;24.80;60.30
37910;DHT22;23741;49.446;8.754;2023-06-22T00:13:40;24.90;60.50
37910;DHT22;23741;49.446;8.754;2023-06-22T00:15:42;24.80;60.20
37910;DHT22;23741;49.446;8.754;2023-06-22T00:17:45;24.80;60.40
37910;DHT22;23741;49.446;8.754;2023-06-22T00:19:47;24.80;60.50
37910;DHT22;23741;49.446;8.754;2023-06-22T00:21:52;24.70;60.20
37910;DHT22;23741;49.446;8.754;2023-06-22T00:23:55;24.70;60.60
37910;DHT22;23741;49.446;8.754;2023-06-22T00:25:57;24.70;60.80
37910;DHT22;23741;49.446;8.754;2023-06-22T00:27:58;24.70;60.40
37910;DHT22;23741;49.446;8.754;2023-06-22T00:30:01;24.70;60.30
37910;DHT22;23741;49.446;8.754;2023-06-22T00:32:06;24.70;60.50
37910;DHT22;23741;49.446;8.754;2023-06-22T00:34:08;24.60;60.60
37910;DHT22;23741;49.446;8.754;2023-06-22T00:36:10;24.60;60.80
37910;DHT22;23741;49.446;8.754;2023-06-22T00:38:14;24.60;60.60
37910;DHT22;23741;49.446;8.754;2023-06-22T00:40:16;24.60;60.40
37910;DHT22;23741;49.446;8.754;2023-06-22T00:42:26;24.50;60.80
37910;DHT22;23741;49.446;8.754;2023-06-22T00:44:28;24.50;60.80
37910;DHT22;23741;49.446;8.754;2023-06-22T00:46:31;24.50;60.50
37910;DHT22;23741;49.446;8.754;2023-06-22T00:48:33;24.50;60.50
37910;DHT22;23741;49.446;8.754;2023-06-22T00:50:38;24.50;60.80
37910;DHT22;23741;49.446;8.754;2023-06-22T00:52:40;24.50;60.60
37910;DHT22;23741;49.446;8.754;2023-06-22T00:54:45;24.50;60.70
37910;DHT22;23741;49.446;8.754;2023-06-22T00:56:46;24.50;60.90
37910;DHT22;23741;49.446;8.754;2023-06-22T00:58:48;24.40;60.80
37910;DHT22;23741;49.446;8.754;2023-06-22T01:01:01;24.50;60.60
37910;DHT22;23741;49.446;8.754;2023-06-22T01:03:06;24.50;60.80
37910;DHT22;23741;49.446;8.754;2023-06-22T01:05:13;24.50;60.50
37910;DHT22;23741;49.446;8.754;2023-06-22T01:07:20;24.50;61.40
37910;DHT22;23741;49.446;8.754;2023-06-22T01:09:27;24.50;60.70
37910;DHT22;23741;49.446;8.754;2023-06-22T01:11:35;24.50;61.10
37910;DHT22;23741;49.446;8.754;2023-06-22T01:15:46;24.60;61.70
37910;DHT22;23741;49.446;8.754;2023-06-22T01:17:51;24.60;61.70
37910;DHT22;23741;49.446;8.754;2023-06-22T01:19:56;24.60;62.40
37910;DHT22;23741;49.446;8.754;2023-06-22T01:21:58;24.60;62.40
37910;DHT22;23741;49.446;8.754;2023-06-22T01:28:22;24.60;62.20
37910;DHT22;23741;49.446;8.754;2023-06-22T01:30:24;24.60;63.20
37910;DHT22;23741;49.446;8.754;2023-06-22T01:32:32;24.60;62.30
37910;DHT22;23741;49.446;8.754;2023-06-22T01:34:34;24.60;63.00
37910;DHT22;23741;49.446;8.754;2023-06-22T01:36:37;24.60;62.70
37910;DHT22;23741;49.446;8.754;2023-06-22T01:38:39;24.50;62.20
37910;DHT22;23741;49.446;8.754;2023-06-22T01:40:42;24.60;62.40
37910;DHT22;23741;49.446;8.754;2023-06-22T01:42:46;24.50;62.20
37910;DHT22;23741;49.446;8.754;2023-06-22T01:44:48;24.60;62.00
37910;DHT22;23741;49.446;8.754;2023-06-22T01:46:50;24.50;62.10
37910;DHT22;23741;49.446;8.754;2023-06-22T01:48:54;24.50;61.90
37910;DHT22;23741;49.446;8.754;2023-06-22T01:50:56;24.50;62.50
37910;DHT22;23741;49.446;8.754;2023-06-22T01:52:58;24.50;62.80
37910;DHT22;23741;49.446;8.754;2023-06-22T01:55:00;24.40;62.70
37910;DHT22;23741;49.446;8.754;2023-06-22T01:57:03;24.50;62.70
37910;DHT22;23741;49.446;8.754;2023-06-22T01:59:11;24.40;62.70
37910;DHT22;23741;49.446;8.754;2023-06-22T02:01:14;24.50;63.10
37910;DHT22;23741;49.446;8.754;2023-06-22T02:03:41;24.40;62.90
37910;DHT22;23741;49.446;8.754;2023-06-22T02:05:48;24.40;63.00
37910;DHT22;23741;49.446;8.754;2023-06-22T02:08:00;24.40;62.80
37910;DHT22;23741;49.446;8.754;2023-06-22T02:10:05;24.40;62.80
37910;DHT22;23741;49.446;8.754;2023-06-22T02:12:08;24.40;63.00
37910;DHT22;23741;49.446;8.754;2023-06-22T02:14:11;24.30;62.90
37910;DHT22;23741;49.446;8.754;2023-06-22T02:16:13;24.30;63.00
37910;DHT22;23741;49.446;8.754;2023-06-22T02:18:15;24.30;63.30
37910;DHT22;23741;49.446;8.754;2023-06-22T02:20:17;24.20;63.00
37910;DHT22;23741;49.446;8.754;2023-06-22T02:22:19;24.30;63.00
37910;DHT22;23741;49.446;8.754;2023-06-22T02:24:21;24.30;63.10
37910;DHT22;23741;49.446;8.754;2023-06-22T02:26:25;24.20;62.90
37910;DHT22;23741;49.446;8.754;2023-06-22T02:28:28;24.20;62.90
37910;DHT22;23741;49.446;8.754;2023-06-22T02:30:30;24.20;62.90
37910;DHT22;23741;49.446;8.754;2023-06-22T02:32:33;24.20;63.00
37910;DHT22;23741;49.446;8.754;2023-06-22T02:34:35;24.20;62.80
37910;DHT22;23741;49.446;8.754;2023-06-22T02:36:38;24.10;62.90
37910;DHT22;23741;49.446;8.754;2023-06-22T02:38:41;24.10;62.90
37910;DHT22;23741;49.446;8.754;2023-06-22T02:40:49;24.10;63.10
37910;DHT22;23741;49.446;8.754;2023-06-22T02:42:51;24.10;63.00
37910;DHT22;23741;49.446;8.754;2023-06-22T02:44:53;24.00;62.90
37910;DHT22;23741;49.446;8.754;2023-06-22T02:46:55;24.10;63.20
37910;DHT22;23741;49.446;8.754;2023-06-22T02:48:56;24.00;63.10
37910;DHT22;23741;49.446;8.754;2023-06-22T02:50:58;24.10;63.20
37910;DHT22;23741;49.446;8.754;2023-06-22T02:53:00;24.00;62.90
37910;DHT22;23741;49.446;8.754;2023-06-22T02:55:04;24.00;62.90
37910;DHT22;23741;49.446;8.754;2023-06-22T02:57:06;24.00;63.00
37910;DHT22;23741;49.446;8.754;2023-06-22T02:59:07;24.00;63.00
37910;DHT22;23741;49.446;8.754;2023-06-22T03:01:12;23.90;62.90
37910;DHT22;23741;49.446;8.754;2023-06-22T03:03:19;24.00;63.00
37910;DHT22;23741;49.446;8.754;2023-06-22T03:05:21;23.90;62.70
37910;DHT22;23741;49.446;8.754;2023-06-22T03:07:22;23.90;62.80
37910;DHT22;23741;49.446;8.754;2023-06-22T03:09:25;23.90;63.30
37910;DHT22;23741;49.446;8.754;2023-06-22T03:11:27;23.90;64.10
37910;DHT22;23741;49.446;8.754;2023-06-22T03:13:32;23.90;63.00
37910;DHT22;23741;49.446;8.754;2023-06-22T03:15:34;23.90;63.00
37910;DHT22;23741;49.446;8.754;2023-06-22T03:17:36;23.80;62.80
37910;DHT22;23741;49.446;8.754;2023-06-22T03:19:39;23.80;63.00
37910;DHT22;23741;49.446;8.754;2023-06-22T03:21:41;23.80;63.10
37910;DHT22;23741;49.446;8.754;2023-06-22T03:23:45;23.80;63.00
37910;DHT22;23741;49.446;8.754;2023-06-22T03:25:47;23.80;63.30
37910;DHT22;23741;49.446;8.754;2023-06-22T03:27:49;23.80;63.40
37910;DHT22;23741;49.446;8.754;2023-06-22T03:29:50;23.70;63.00
37910;DHT22;23741;49.446;8.754;2023-06-22T03:31:52;23.70;63.20
37910;DHT22;23741;49.446;8.754;2023-06-22T03:33:55;23.70;63.20
37910;DHT22;23741;49.446;8.754;2023-06-22T03:35:58;23.70;63.40
37910;DHT22;23741;49.446;8.754;2023-06-22T03:37:59;23.70;63.30
37910;DHT22;23741;49.446;8.754;2023-06-22T03:40:01;23.60;63.20
37910;DHT22;23741;49.446;8.754;2023-06-22T03:42:05;23.60;63.40
37910;DHT22;23741;49.446;8.754;2023-06-22T03:44:07;23.60;63.60
37910;DHT22;23741;49.446;8.754;2023-06-22T03:46:12;23.60;63.50
37910;DHT22;23741;49.446;8.754;2023-06-22T03:48:13;23.60;63.50
37910;DHT22;23741;49.446;8.754;2023-06-22T03:50:15;23.60;63.70
37910;DHT22;23741;49.446;8.754;2023-06-22T03:52:17;23.60;63.70
37910;DHT22;23741;49.446;8.754;2023-06-22T03:54:19;23.60;63.50
37910;DHT22;23741;49.446;8.754;2023-06-22T03:56:20;23.60;63.70
37910;DHT22;23741;49.446;8.754;2023-06-22T03:58:22;23.50;63.50
37910;DHT22;23741;49.446;8.754;2023-06-22T04:00:24;23.50;63.80
37910;DHT22;23741;49.446;8.754;2023-06-22T04:02:26;23.50;63.50
37910;DHT22;23741;49.446;8.754;2023-06-22T04:04:28;23.50;63.90
37910;DHT22;23741;49.446;8.754;2023-06-22T04:06:29;23.50;64.00
37910;DHT22;23741;49.446;8.754;2023-06-22T04:08:32;23.50;64.20
37910;DHT22;23741;49.446;8.754;2023-06-22T04:10:34;23.50;64.30
37910;DHT22;23741;49.446;8.754;2023-06-22T04:12:35;23.50;63.80
37910;DHT22;23741;49.446;8.754;2023-06-22T04:14:37;23.50;64.40
37910;DHT22;23741;49.446;8.754;2023-06-22T04:16:39;23.50;64.40
37910;DHT22;23741;49.446;8.754;2023-06-22T04:18:40;23.50;64.30
37910;DHT22;23741;49.446;8.754;2023-06-22T04:20:43;23.50;64.20
37910;DHT22;23741;49.446;8.754;2023-06-22T04:22:48;23.50;64.50
37910;DHT22;23741;49.446;8.754;2023-06-22T04:24:50;23.50;64.40
37910;DHT22;23741;49.446;8.754;2023-06-22T04:26:53;23.50;64.50
37910;DHT22;23741;49.446;8.754;2023-06-22T04:28:56;23.50;64.50
37910;DHT22;23741;49.446;8.754;2023-06-22T04:30:58;23.50;64.20
37910;DHT22;23741;49.446;8.754;2023-06-22T04:33:04;23.50;64.60
37910;DHT22;23741;49.446;8.754;2023-06-22T04:35:05;23.50;64.40
37910;DHT22;23741;49.446;8.754;2023-06-22T04:37:11;23.50;64.90
37910;DHT22;23741;49.446;8.754;2023-06-22T04:39:17;23.50;65.50
37910;DHT22;23741;49.446;8.754;2023-06-22T04:41:20;23.50;65.60
37910;DHT22;23741;49.446;8.754;2023-06-22T04:43:25;23.50;65.00
37910;DHT22;23741;49.446;8.754;2023-06-22T04:45:32;23.50;65.00
37910;DHT22;23741;49.446;8.754;2023-06-22T04:47:34;23.50;64.70
37910;DHT22;23741;49.446;8.754;2023-06-22T04:49:36;23.50;65.00
37910;DHT22;23741;49.446;8.754;2023-06-22T04:51:39;23.50;65.00
37910;DHT22;23741;49.446;8.754;2023-06-22T04:53:41;23.50;65.10
37910;DHT22;23741;49.446;8.754;2023-06-22T04:55:44;23.50;65.10
37910;DHT22;23741;49.446;8.754;2023-06-22T04:57:47;23.50;65.10
37910;DHT22;23741;49.446;8.754;2023-06-22T04:59:51;23.50;65.30
37910;DHT22;23741;49.446;8.754;2023-06-22T05:01:57;23.50;65.40
37910;DHT22;23741;49.446;8.754;2023-06-22T05:03:59;23.50;65.10
37910;DHT22;23741;49.446;8.754;2023-06-22T05:06:03;23.50;65.40
37910;DHT22;23741;49.446;8.754;2023-06-22T05:08:04;23.50;65.10
37910;DHT22;23741;49.446;8.754;2023-06-22T05:10:08;23.50;65.50
37910;DHT22;23741;49.446;8.754;2023-06-22T05:12:11;23.60;65.40
37910;DHT22;23741;49.446;8.754;2023-06-22T05:14:13;23.60;65.40
37910;DHT22;23741;49.446;8.754;2023-06-22T05:16:15;23.60;65.10
37910;DHT22;23741;49.446;8.754;2023-06-22T05:18:17;23.60;65.60
37910;DHT22;23741;49.446;8.754;2023-06-22T05:20:18;23.60;65.20
37910;DHT22;23741;49.446;8.754;2023-06-22T05:22:20;23.60;65.40
37910;DHT22;23741;49.446;8.754;2023-06-22T05:24:22;23.60;65.40
37910;DHT22;23741;49.446;8.754;2023-06-22T05:26:24;23.60;65.30
37910;DHT22;23741;49.446;8.754;2023-06-22T05:28:25;23.60;65.40
37910;DHT22;23741;49.446;8.754;2023-06-22T05:30:27;23.70;65.70
37910;DHT22;23741;49.446;8.754;2023-06-22T05:32:29;23.70;65.70
37910;DHT22;23741;49.446;8.754;2023-06-22T05:34:31;23.70;65.30
37910;DHT22;23741;49.446;8.754;2023-06-22T05:36:33;23.70;65.30
37910;DHT22;23741;49.446;8.754;2023-06-22T05:38:35;23.70;65.40
37910;DHT22;23741;49.446;8.754;2023-06-22T05:40:37;23.80;65.30
37910;DHT22;23741;49.446;8.754;2023-06-22T05:42:38;23.70;65.20
37910;DHT22;23741;49.446;8.754;2023-06-22T05:44:40;23.80;65.30
37910;DHT22;23741;49.446;8.754;2023-06-22T05:46:43;23.80;65.30
37910;DHT22;23741;49.446;8.754;2023-06-22T05:48:46;23.80;66.20
37910;DHT22;23741;49.446;8.754;2023-06-22T05:50:48;23.80;65.30
37910;DHT22;23741;49.446;8.754;2023-06-22T05:52:49;23.80;65.70
37910;DHT22;23741;49.446;8.754;2023-06-22T05:54:51;23.80;65.40
37910;DHT22;23741;49.446;8.754;2023-06-22T05:56:53;23.90;65.70
37910;DHT22;23741;49.446;8.754;2023-06-22T05:58:54;23.90;65.60
37910;DHT22;23741;49.446;8.754;2023-06-22T06:00:56;23.90;65.30
37910;DHT22;23741;49.446;8.754;2023-06-22T06:02:58;23.90;65.20
37910;DHT22;23741;49.446;8.754;2023-06-22T06:05:05;23.90;65.30
37910;DHT22;23741;49.446;8.754;2023-06-22T06:07:08;23.90;65.20
37910;DHT22;23741;49.446;8.754;2023-06-22T06:09:10;24.00;65.10
37910;DHT22;23741;49.446;8.754;2023-06-22T06:11:13;24.00;65.40
37910;DHT22;23741;49.446;8.754;2023-06-22T06:13:14;24.00;65.40
37910;DHT22;23741;49.446;8.754;2023-06-22T06:15:17;24.00;65.20
37910;DHT22;23741;49.446;8.754;2023-06-22T06:17:18;24.00;64.90
37910;DHT22;23741;49.446;8.754;2023-06-22T06:19:20;24.10;64.50
37910;DHT22;23741;49.446;8.754;2023-06-22T06:21:22;24.10;64.80
37910;DHT22;23741;49.446;8.754;2023-06-22T06:23:24;24.10;64.90
37910;DHT22;23741;49.446;8.754;2023-06-22T06:25:25;24.20;65.20
37910;DHT22;23741;49.446;8.754;2023-06-22T06:27:27;24.20;64.70
37910;DHT22;23741;49.446;8.754;2023-06-22T06:29:33;24.30;65.00
37910;DHT22;23741;49.446;8.754;2023-06-22T06:31:35;24.30;64.90
37910;DHT22;23741;49.446;8.754;2023-06-22T06:33:37;24.30;64.70
37910;DHT22;23741;49.446;8.754;2023-06-22T06:35:39;24.40;64.60
37910;DHT22;23741;49.446;8.754;2023-06-22T06:37:42;24.40;65.60
37910;DHT22;23741;49.446;8.754;2023-06-22T06:39:44;24.40;64.60
37910;DHT22;23741;49.446;8.754;2023-06-22T06:41:46;24.50;64.60
37910;DHT22;23741;49.446;8.754;2023-06-22T06:43:49;24.50;64.60
37910;DHT22;23741;49.446;8.754;2023-06-22T06:45:51;24.50;64.40
37910;DHT22;23741;49.446;8.754;2023-06-22T06:47:53;24.60;64.50
37910;DHT22;23741;49.446;8.754;2023-06-22T06:49:58;24.60;64.30
37910;DHT22;23741;49.446;8.754;2023-06-22T06:52:00;24.60;64.20
37910;DHT22;23741;49.446;8.754;2023-06-22T06:54:01;24.70;64.10
37910;DHT22;23741;49.446;8.754;2023-06-22T06:56:04;24.70;64.50
37910;DHT22;23741;49.446;8.754;2023-06-22T06:58:06;24.70;64.10
37910;DHT22;23741;49.446;8.754;2023-06-22T07:00:10;24.80;64.10
37910;DHT22;23741;49.446;8.754;2023-06-22T07:02:16;24.80;64.10
37910;DHT22;23741;49.446;8.754;2023-06-22T07:04:17;24.90;64.10
37910;DHT22;23741;49.446;8.754;2023-06-22T07:06:19;24.90;64.10
37910;DHT22;23741;49.446;8.754;2023-06-22T07:08:21;25.00;63.90
37910;DHT22;23741;49.446;8.754;2023-06-22T07:10:23;25.00;63.70
37910;DHT22;23741;49.446;8.754;2023-06-22T07:12:25;25.10;64.10
37910;DHT22;23741;49.446;8.754;2023-06-22T07:14:26;25.10;63.80
37910;DHT22;23741;49.446;8.754;2023-06-22T07:16:28;25.10;63.60
37910;DHT22;23741;49.446;8.754;2023-06-22T07:18:31;25.20;63.50
37910;DHT22;23741;49.446;8.754;2023-06-22T07:20:33;25.20;63.50
37910;DHT22;23741;49.446;8.754;2023-06-22T07:22:35;25.20;63.50
37910;DHT22;23741;49.446;8.754;2023-06-22T07:24:36;25.30;63.60
37910;DHT22;23741;49.446;8.754;2023-06-22T07:26:38;25.30;63.40
37910;DHT22;23741;49.446;8.754;2023-06-22T07:28:40;25.40;63.40
37910;DHT22;23741;49.446;8.754;2023-06-22T07:30:42;25.40;63.40
37910;DHT22;23741;49.446;8.754;2023-06-22T07:32:44;25.50;63.40
37910;DHT22;23741;49.446;8.754;2023-06-22T07:34:46;25.50;63.40
37910;DHT22;23741;49.446;8.754;2023-06-22T07:36:47;25.60;63.30
37910;DHT22;23741;49.446;8.754;2023-06-22T07:38:50;25.60;63.10
37910;DHT22;23741;49.446;8.754;2023-06-22T07:40:52;25.70;63.10
37910;DHT22;23741;49.446;8.754;2023-06-22T07:42:54;25.70;63.10
37910;DHT22;23741;49.446;8.754;2023-06-22T07:44:56;25.70;63.10
37910;DHT22;23741;49.446;8.754;2023-06-22T07:46:58;25.80;63.10
37910;DHT22;23741;49.446;8.754;2023-06-22T07:49:00;25.80;62.90
37910;DHT22;23741;49.446;8.754;2023-06-22T07:51:02;25.90;62.90
37910;DHT22;23741;49.446;8.754;2023-06-22T07:53:04;25.90;62.80
37910;DHT22;23741;49.446;8.754;2023-06-22T07:55:06;26.00;62.70
37910;DHT22;23741;49.446;8.754;2023-06-22T07:57:08;26.00;62.60
37910;DHT22;23741;49.446;8.754;2023-06-22T07:59:09;26.00;62.50
37910;DHT22;23741;49.446;8.754;2023-06-22T08:01:11;26.10;62.40
37910;DHT22;23741;49.446;8.754;2023-06-22T08:03:13;26.10;62.40
37910;DHT22;23741;49.446;8.754;2023-06-22T08:05:15;26.10;62.30
37910;DHT22;23741;49.446;8.754;2023-06-22T08:07:20;26.20;62.20
37910;DHT22;23741;49.446;8.754;2023-06-22T08:09:24;26.20;62.20
37910;DHT22;23741;49.446;8.754;2023-06-22T08:11:26;26.30;62.10
37910;DHT22;23741;49.446;8.754;2023-06-22T08:13:27;26.30;62.10
37910;DHT22;23741;49.446;8.754;2023-06-22T08:15:29;26.40;62.10
37910;DHT22;23741;49.446;8.754;2023-06-22T08:17:31;26.40;62.10
37910;DHT22;23741;49.446;8.754;2023-06-22T08:19:33;26.40;62.10
37910;DHT22;23741;49.446;8.754;2023-06-22T08:21:35;26.50;62.10
37910;DHT22;23741;49.446;8.754;2023-06-22T08:23:37;26.50;62.10
37910;DHT22;23741;49.446;8.754;2023-06-22T08:25:39;26.60;62.10
37910;DHT22;23741;49.446;8.754;2023-06-22T08:27:44;26.60;62.00
37910;DHT22;23741;49.446;8.754;2023-06-22T08:29:46;26.70;62.10
37910;DHT22;23741;49.446;8.754;2023-06-22T08:31:47;26.70;61.80
37910;DHT22;23741;49.446;8.754;2023-06-22T08:33:52;26.80;61.60
37910;DHT22;23741;49.446;8.754;2023-06-22T08:35:54;26.90;61.60
37910;DHT22;23741;49.446;8.754;2023-06-22T08:37:56;26.90;61.70
37910;DHT22;23741;49.446;8.754;2023-06-22T08:39:59;26.90;61.60
37910;DHT22;23741;49.446;8.754;2023-06-22T08:42:02;27.00;61.80
37910;DHT22;23741;49.446;8.754;2023-06-22T08:44:04;27.00;61.50
37910;DHT22;23741;49.446;8.754;2023-06-22T08:46:06;27.10;61.40
37910;DHT22;23741;49.446;8.754;2023-06-22T08:48:08;27.10;61.50
37910;DHT22;23741;49.446;8.754;2023-06-22T08:50:10;27.20;61.60
37910;DHT22;23741;49.446;8.754;2023-06-22T08:52:17;27.20;61.50
37910;DHT22;23741;49.446;8.754;2023-06-22T08:54:18;27.30;61.50
37910;DHT22;23741;49.446;8.754;2023-06-22T08:56:20;27.40;61.40
37910;DHT22;23741;49.446;8.754;2023-06-22T08:58:22;27.40;61.20
37910;DHT22;23741;49.446;8.754;2023-06-22T09:00:28;27.50;61.40
37910;DHT22;23741;49.446;8.754;2023-06-22T09:02:36;27.50;61.20
37910;DHT22;23741;49.446;8.754;2023-06-22T09:04:38;27.50;61.10
37910;DHT22;23741;49.446;8.754;2023-06-22T09:06:40;27.60;61.00
37910;DHT22;23741;49.446;8.754;2023-06-22T09:08:46;27.70;60.90
37910;DHT22;23741;49.446;8.754;2023-06-22T09:10:48;27.70;60.90
37910;DHT22;23741;49.446;8.754;2023-06-22T09:12:50;27.80;60.80
37910;DHT22;23741;49.446;8.754;2023-06-22T09:14:52;27.80;60.50
37910;DHT22;23741;49.446;8.754;2023-06-22T09:16:54;27.90;60.10
37910;DHT22;23741;49.446;8.754;2023-06-22T09:18:56;27.90;60.70
37910;DHT22;23741;49.446;8.754;2023-06-22T09:20:57;28.00;60.80
37910;DHT22;23741;49.446;8.754;2023-06-22T09:22:59;28.00;60.40
37910;DHT22;23741;49.446;8.754;2023-06-22T09:25:01;28.10;60.70
37910;DHT22;23741;49.446;8.754;2023-06-22T09:27:08;28.10;60.40
37910;DHT22;23741;49.446;8.754;2023-06-22T09:29:10;28.20;60.50
37910;DHT22;23741;49.446;8.754;2023-06-22T09:31:11;28.20;60.40
37910;DHT22;23741;49.446;8.754;2023-06-22T09:33:13;28.30;60.10
37910;DHT22;23741;49.446;8.754;2023-06-22T09:35:15;28.40;60.20
37910;DHT22;23741;49.446;8.754;2023-06-22T09:37:17;28.40;60.20
37910;DHT22;23741;49.446;8.754;2023-06-22T09:39:22;28.50;60.10
37910;DHT22;23741;49.446;8.754;2023-06-22T09:41:24;28.50;60.10
37910;DHT22;23741;49.446;8.754;2023-06-22T09:43:26;28.60;59.90
37910;DHT22;23741;49.446;8.754;2023-06-22T09:45:28;28.60;59.90
37910;DHT22;23741;49.446;8.754;2023-06-22T09:47:30;28.70;59.90
37910;DHT22;23741;49.446;8.754;2023-06-22T09:49:32;28.70;59.20
37910;DHT22;23741;49.446;8.754;2023-06-22T09:51:49;28.80;59.50
37910;DHT22;23741;49.446;8.754;2023-06-22T09:53:52;28.80;59.40
37910;DHT22;23741;49.446;8.754;2023-06-22T09:55:56;28.80;59.60
37910;DHT22;23741;49.446;8.754;2023-06-22T09:57:58;28.80;59.40
37910;DHT22;23741;49.446;8.754;2023-06-22T10:00:00;28.90;59.30
37910;DHT22;23741;49.446;8.754;2023-06-22T10:02:05;28.90;59.30
37910;DHT22;23741;49.446;8.754;2023-06-22T10:04:07;29.00;59.30
37910;DHT22;23741;49.446;8.754;2023-06-22T10:06:09;29.00;59.50
37910;DHT22;23741;49.446;8.754;2023-06-22T10:08:11;29.00;59.50
37910;DHT22;23741;49.446;8.754;2023-06-22T10:10:13;29.00;59.50
37910;DHT22;23741;49.446;8.754;2023-06-22T10:12:15;29.10;59.50
37910;DHT22;23741;49.446;8.754;2023-06-22T10:14:17;29.20;59.50
37910;DHT22;23741;49.446;8.754;2023-06-22T10:16:18;29.30;59.50
37910;DHT22;23741;49.446;8.754;2023-06-22T10:18:20;29.30;59.50
37910;DHT22;23741;49.446;8.754;2023-06-22T10:20:22;29.40;59.20
37910;DHT22;23741;49.446;8.754;2023-06-22T10:22:24;29.40;59.00
37910;DHT22;23741;49.446;8.754;2023-06-22T10:24:25;29.50;59.10
37910;DHT22;23741;49.446;8.754;2023-06-22T10:26:27;29.60;59.20
37910;DHT22;23741;49.446;8.754;2023-06-22T10:28:30;29.60;59.00
37910;DHT22;23741;49.446;8.754;2023-06-22T10:30:33;29.60;58.90
37910;DHT22;23741;49.446;8.754;2023-06-22T10:32:37;29.70;59.00
37910;DHT22;23741;49.446;8.754;2023-06-22T10:34:39;29.70;59.00
37910;DHT22;23741;49.446;8.754;2023-06-22T10:36:40;29.70;58.90
37910;DHT22;23741;49.446;8.754;2023-06-22T10:38:42;29.80;59.00
37910;DHT22;23741;49.446;8.754;2023-06-22T10:40:44;29.80;58.70
37910;DHT22;23741;49.446;8.754;2023-06-22T10:42:45;29.90;58.60
37910;DHT22;23741;49.446;8.754;2023-06-22T10:44:47;29.90;58.60
37910;DHT22;23741;49.446;8.754;2023-06-22T10:46:49;29.90;58.60
37910;DHT22;23741;49.446;8.754;2023-06-22T10:48:50;30.00;58.60
37910;DHT22;23741;49.446;8.754;2023-06-22T10:50:52;30.00;58.60
37910;DHT22;23741;49.446;8.754;2023-06-22T10:52:55;30.00;58.40
37910;DHT22;23741;49.446;8.754;2023-06-22T10:55:00;30.00;58.40
37910;DHT22;23741;49.446;8.754;2023-06-22T10:57:02;30.00;58.40
37910;DHT22;23741;49.446;8.754;2023-06-22T10:59:04;30.10;58.50
37910;DHT22;23741;49.446;8.754;2023-06-22T11:01:06;30.10;58.60
37910;DHT22;23741;49.446;8.754;2023-06-22T11:03:07;30.10;58.40
37910;DHT22;23741;49.446;8.754;2023-06-22T11:05:11;30.10;58.40
37910;DHT22;23741;49.446;8.754;2023-06-22T11:07:13;30.20;58.60
37910;DHT22;23741;49.446;8.754;2023-06-22T11:09:15;30.20;58.50
37910;DHT22;23741;49.446;8.754;2023-06-22T11:11:29;30.20;58.60
37910;DHT22;23741;49.446;8.754;2023-06-22T11:13:30;30.30;58.70
37910;DHT22;23741;49.446;8.754;2023-06-22T11:15:32;30.30;58.60
37910;DHT22;23741;49.446;8.754;2023-06-22T11:17:34;30.40;58.70
37910;DHT22;23741;49.446;8.754;2023-06-22T11:19:36;30.40;58.70
37910;DHT22;23741;49.446;8.754;2023-06-22T11:21:38;30.50;58.80
37910;DHT22;23741;49.446;8.754;2023-06-22T11:23:41;30.60;58.70
37910;DHT22;23741;49.446;8.754;2023-06-22T11:25:43;30.60;58.60
37910;DHT22;23741;49.446;8.754;2023-06-22T11:27:45;30.70;58.60
37910;DHT22;23741;49.446;8.754;2023-06-22T11:29:47;30.70;58.50
37910;DHT22;23741;49.446;8.754;2023-06-22T11:31:48;30.80;58.40
37910;DHT22;23741;49.446;8.754;2023-06-22T11:33:50;30.90;58.30
37910;DHT22;23741;49.446;8.754;2023-06-22T11:35:52;30.90;58.40
37910;DHT22;23741;49.446;8.754;2023-06-22T11:37:54;31.00;58.40
37910;DHT22;23741;49.446;8.754;2023-06-22T11:39:57;31.10;58.20
37910;DHT22;23741;49.446;8.754;2023-06-22T11:42:08;31.20;58.00
37910;DHT22;23741;49.446;8.754;2023-06-22T11:44:10;31.20;57.90
37910;DHT22;23741;49.446;8.754;2023-06-22T11:46:12;31.30;57.90
37910;DHT22;23741;49.446;8.754;2023-06-22T11:48:14;31.30;58.00
37910;DHT22;23741;49.446;8.754;2023-06-22T11:50:15;31.40;57.80
37910;DHT22;23741;49.446;8.754;2023-06-22T11:52:17;31.50;57.90
37910;DHT22;23741;49.446;8.754;2023-06-22T11:54:19;31.50;57.80
37910;DHT22;23741;49.446;8.754;2023-06-22T11:56:21;31.50;57.40
37910;DHT22;23741;49.446;8.754;2023-06-22T11:58:22;31.60;57.30
37910;DHT22;23741;49.446;8.754;2023-06-22T12:00:24;31.70;57.40
37910;DHT22;23741;49.446;8.754;2023-06-22T12:02:30;31.70;57.00
37910;DHT22;23741;49.446;8.754;2023-06-22T12:04:35;31.70;56.90
37910;DHT22;23741;49.446;8.754;2023-06-22T12:06:38;31.80;57.00
37910;DHT22;23741;49.446;8.754;2023-06-22T12:08:43;31.90;56.70
37910;DHT22;23741;49.446;8.754;2023-06-22T12:10:45;31.90;56.60
37910;DHT22;23741;49.446;8.754;2023-06-22T12:12:47;31.90;56.50
37910;DHT22;23741;49.446;8.754;2023-06-22T12:14:48;32.00;56.60
37910;DHT22;23741;49.446;8.754;2023-06-22T12:16:50;32.00;56.60
37910;DHT22;23741;49.446;8.754;2023-06-22T12:18:52;32.00;56.50
37910;DHT22;23741;49.446;8.754;2023-06-22T12:20:54;32.10;56.40
37910;DHT22;23741;49.446;8.754;2023-06-22T12:22:55;32.10;56.60
37910;DHT22;23741;49.446;8.754;2023-06-22T12:25:00;32.10;55.90
37910;DHT22;23741;49.446;8.754;2023-06-22T12:27:02;32.10;56.00
37910;DHT22;23741;49.446;8.754;2023-06-22T12:29:04;32.10;56.10
37910;DHT22;23741;49.446;8.754;2023-06-22T12:31:06;32.20;56.10
37910;DHT22;23741;49.446;8.754;2023-06-22T12:33:08;32.20;55.00
37910;DHT22;23741;49.446;8.754;2023-06-22T12:35:10;32.20;55.60
37910;DHT22;23741;49.446;8.754;2023-06-22T12:37:15;32.20;55.70
37910;DHT22;23741;49.446;8.754;2023-06-22T12:39:17;32.20;55.70
37910;DHT22;23741;49.446;8.754;2023-06-22T12:41:19;32.20;55.80
37910;DHT22;23741;49.446;8.754;2023-06-22T12:43:20;32.30;55.70
37910;DHT22;23741;49.446;8.754;2023-06-22T12:45:22;32.20;55.30
37910;DHT22;23741;49.446;8.754;2023-06-22T12:47:24;32.40;56.00
37910;DHT22;23741;49.446;8.754;2023-06-22T12:49:26;32.40;55.10
37910;DHT22;23741;49.446;8.754;2023-06-22T12:51:28;32.50;55.30
37910;DHT22;23741;49.446;8.754;2023-06-22T12:53:30;32.50;55.70
37910;DHT22;23741;49.446;8.754;2023-06-22T12:55:32;32.60;55.20
37910;DHT22;23741;49.446;8.754;2023-06-22T12:57:33;32.70;55.90
37910;DHT22;23741;49.446;8.754;2023-06-22T12:59:35;32.70;55.60
37910;DHT22;23741;49.446;8.754;2023-06-22T13:01:37;32.80;54.70